sensor_id;sensor_type;location;lat;lon;timestamp;pressure;altitude;pressure_sealevel;temperature
12409;BMP180;6268;48.188;17.134;2023-03-01T00:01:52;49639.06;;;-134.68
12409;BMP180;6268;48.188;17.134;2023-03-01T00:04:21;49639.06;;;-134.68
12409;BMP180;6268;48.188;17.134;2023-03-01T00:06:50;49639.06;;;-134.68
12409;BMP180;6268;48.188;17.134;2023-03-01T00:09:19;49641.00;;;-134.68
12409;BMP180;6268;48.188;17.134;2023-03-01T00:11:48;49639.06;;;-134.68
12409;BMP180;6268;48.188;17.134;2023-03-01T00:14:17;49641.00;;;-134.68
12409;BMP180;6268;48.188;17.134;2023-03-01T00:16:47;49639.06;;;-134.68
12409;BMP180;6268;48.188;17.134;2023-03-01T00:19:19;49641.00;;;-134.68
12409;BMP180;6268;48.188;17.134;2023-03-01T00:21:49;49639.06;;;-134.68
12409;BMP180;6268;48.188;17.134;2023-03-01T00:24:18;49639.06;;;-134.68
12409;BMP180;6268;48.188;17.134;2023-03-01T00:26:47;49641.00;;;-134.68
12409;BMP180;6268;48.188;17.134;2023-03-01T00:29:16;49642.94;;;-134.68
12409;BMP180;6268;48.188;17.134;2023-03-01T00:31:44;49642.94;;;-134.68
12409;BMP180;6268;48.188;17.134;2023-03-01T00:34:15;49642.94;;;-134.68
12409;BMP180;6268;48.188;17.134;2023-03-01T00:36:44;49639.06;;;-134.68
12409;BMP180;6268;48.188;17.134;2023-03-01T00:39:15;49641.00;;;-134.68
12409;BMP180;6268;48.188;17.134;2023-03-01T00:41:44;49639.06;;;-134.68
12409;BMP180;6268;48.188;17.134;2023-03-01T00:44:13;49641.00;;;-134.68
12409;BMP180;6268;48.188;17.134;2023-03-01T00:46:42;49642.94;;;-134.68
12409;BMP180;6268;48.188;17.134;2023-03-01T00:49:10;49639.06;;;-134.68
12409;BMP180;6268;48.188;17.134;2023-03-01T00:51:41;49639.06;;;-134.68
12409;BMP180;6268;48.188;17.134;2023-03-01T00:54:10;49641.00;;;-134.68
12409;BMP180;6268;48.188;17.134;2023-03-01T00:56:39;49637.13;;;-134.68
12409;BMP180;6268;48.188;17.134;2023-03-01T00:59:07;49642.94;;;-134.68
12409;BMP180;6268;48.188;17.134;2023-03-01T01:01:36;49641.00;;;-134.68
12409;BMP180;6268;48.188;17.134;2023-03-01T01:04:08;49642.94;;;-134.68
12409;BMP180;6268;48.188;17.134;2023-03-01T01:06:42;49641.00;;;-134.68
12409;BMP180;6268;48.188;17.134;2023-03-01T01:09:15;49641.00;;;-134.68
12409;BMP180;6268;48.188;17.134;2023-03-01T01:11:46;49639.06;;;-134.68
12409;BMP180;6268;48.188;17.134;2023-03-01T01:14:17;49642.94;;;-134.68
12409;BMP180;6268;48.188;17.134;2023-03-01T01:16:46;49646.84;;;-134.68
12409;BMP180;6268;48.188;17.134;2023-03-01T01:19:15;49644.88;;;-134.68
12409;BMP180;6268;48.188;17.134;2023-03-01T01:21:45;49641.00;;;-134.68
12409;BMP180;6268;48.188;17.134;2023-03-01T01:24:16;49641.00;;;-134.68
12409;BMP180;6268;48.188;17.134;2023-03-01T01:26:45;49641.00;;;-134.68
12409;BMP180;6268;48.188;17.134;2023-03-01T01:29:14;49641.00;;;-134.68
12409;BMP180;6268;48.188;17.134;2023-03-01T01:31:43;49641.00;;;-134.68
12409;BMP180;6268;48.188;17.134;2023-03-01T01:34:17;49641.00;;;-134.68
12409;BMP180;6268;48.188;17.134;2023-03-01T01:36:50;49642.94;;;-134.68
12409;BMP180;6268;48.188;17.134;2023-03-01T01:39:20;49642.94;;;-134.68
12409;BMP180;6268;48.188;17.134;2023-03-01T01:41:50;49637.13;;;-134.68
12409;BMP180;6268;48.188;17.134;2023-03-01T01:44:21;49644.88;;;-134.68
12409;BMP180;6268;48.188;17.134;2023-03-01T01:46:54;49639.06;;;-134.68
12409;BMP180;6268;48.188;17.134;2023-03-01T01:49:31;49641.00;;;-134.68
12409;BMP180;6268;48.188;17.134;2023-03-01T01:52:10;49641.00;;;-134.68
12409;BMP180;6268;48.188;17.134;2023-03-01T01:54:44;49641.00;;;-134.68
12409;BMP180;6268;48.188;17.134;2023-03-01T01:57:19;49641.00;;;-134.68
12409;BMP180;6268;48.188;17.134;2023-03-01T01:59:53;49641.00;;;-134.68
12409;BMP180;6268;48.188;17.134;2023-03-01T02:02:23;49639.06;;;-134.68
12409;BMP180;6268;48.188;17.134;2023-03-01T02:05:01;49642.94;;;-134.68
12409;BMP180;6268;48.188;17.134;2023-03-01T02:07:33;49641.00;;;-134.68
12409;BMP180;6268;48.188;17.134;2023-03-01T02:10:02;49642.94;;;-134.68
12409;BMP180;6268;48.188;17.134;2023-03-01T02:12:34;49642.94;;;-134.68
12409;BMP180;6268;48.188;17.134;2023-03-01T02:15:04;49641.00;;;-134.68
12409;BMP180;6268;48.188;17.134;2023-03-01T02:17:33;49641.00;;;-134.68
12409;BMP180;6268;48.188;17.134;2023-03-01T02:20:15;49641.00;;;-134.68
12409;BMP180;6268;48.188;17.134;2023-03-01T02:22:51;49639.06;;;-134.68
12409;BMP180;6268;48.188;17.134;2023-03-01T02:25:50;49639.06;;;-134.68
12409;BMP180;6268;48.188;17.134;2023-03-01T02:28:30;49639.06;;;-134.68
12409;BMP180;6268;48.188;17.134;2023-03-01T02:31:00;49644.88;;;-134.68
12409;BMP180;6268;48.188;17.134;2023-03-01T02:33:47;49641.00;;;-134.68
12409;BMP180;6268;48.188;17.134;2023-03-01T02:36:21;49641.00;;;-134.68
12409;BMP180;6268;48.188;17.134;2023-03-01T02:38:55;49642.94;;;-134.68
12409;BMP180;6268;48.188;17.134;2023-03-01T02:41:30;49641.00;;;-134.68
12409;BMP180;6268;48.188;17.134;2023-03-01T02:44:02;49641.00;;;-134.68
12409;BMP180;6268;48.188;17.134;2023-03-01T02:46:31;49641.00;;;-134.68
12409;BMP180;6268;48.188;17.134;2023-03-01T02:49:00;49641.00;;;-134.68
12409;BMP180;6268;48.188;17.134;2023-03-01T02:51:50;49641.00;;;-134.68
12409;BMP180;6268;48.188;17.134;2023-03-01T02:54:29;49642.94;;;-134.68
12409;BMP180;6268;48.188;17.134;2023-03-01T02:57:01;49641.00;;;-134.68
12409;BMP180;6268;48.188;17.134;2023-03-01T02:59:36;49639.06;;;-134.68
12409;BMP180;6268;48.188;17.134;2023-03-01T03:02:07;49639.06;;;-134.68
12409;BMP180;6268;48.188;17.134;2023-03-01T03:04:36;49641.00;;;-134.68
12409;BMP180;6268;48.188;17.134;2023-03-01T03:07:05;49642.94;;;-134.68
12409;BMP180;6268;48.188;17.134;2023-03-01T03:09:34;49642.94;;;-134.68
12409;BMP180;6268;48.188;17.134;2023-03-01T03:12:03;49639.06;;;-134.68
12409;BMP180;6268;48.188;17.134;2023-03-01T03:14:33;49642.94;;;-134.68
12409;BMP180;6268;48.188;17.134;2023-03-01T03:17:02;49641.00;;;-134.68
12409;BMP180;6268;48.188;17.134;2023-03-01T03:19:33;49641.00;;;-134.68
12409;BMP180;6268;48.188;17.134;2023-03-01T03:22:02;49639.06;;;-134.68
12409;BMP180;6268;48.188;17.134;2023-03-01T03:24:31;49641.00;;;-134.68
12409;BMP180;6268;48.188;17.134;2023-03-01T03:27:06;49641.00;;;-134.68
12409;BMP180;6268;48.188;17.134;2023-03-01T03:29:37;49642.94;;;-134.68
12409;BMP180;6268;48.188;17.134;2023-03-01T03:32:06;49641.00;;;-134.68
12409;BMP180;6268;48.188;17.134;2023-03-01T03:34:34;49641.00;;;-134.68
12409;BMP180;6268;48.188;17.134;2023-03-01T03:37:03;49641.00;;;-134.68
12409;BMP180;6268;48.188;17.134;2023-03-01T03:39:52;49642.94;;;-134.68
12409;BMP180;6268;48.188;17.134;2023-03-01T03:42:22;49641.00;;;-134.68
12409;BMP180;6268;48.188;17.134;2023-03-01T03:44:52;49642.94;;;-134.68
12409;BMP180;6268;48.188;17.134;2023-03-01T03:47:21;49644.88;;;-134.68
12409;BMP180;6268;48.188;17.134;2023-03-01T03:49:50;49641.00;;;-134.68
12409;BMP180;6268;48.188;17.134;2023-03-01T03:52:19;49644.88;;;-134.68
12409;BMP180;6268;48.188;17.134;2023-03-01T03:54:48;49642.94;;;-134.68
12409;BMP180;6268;48.188;17.134;2023-03-01T03:57:16;49642.94;;;-134.68
12409;BMP180;6268;48.188;17.134;2023-03-01T03:59:45;49642.94;;;-134.68
12409;BMP180;6268;48.188;17.134;2023-03-01T04:02:16;49639.06;;;-134.68
12409;BMP180;6268;48.188;17.134;2023-03-01T04:04:51;49641.00;;;-134.68
12409;BMP180;6268;48.188;17.134;2023-03-01T04:07:20;49642.94;;;-134.68
12409;BMP180;6268;48.188;17.134;2023-03-01T04:09:49;49639.06;;;-134.68
12409;BMP180;6268;48.188;17.134;2023-03-01T04:12:18;49639.06;;;-134.68
12409;BMP180;6268;48.188;17.134;2023-03-01T04:14:50;49642.94;;;-134.68
12409;BMP180;6268;48.188;17.134;2023-03-01T04:17:20;49639.06;;;-134.68
12409;BMP180;6268;48.188;17.134;2023-03-01T04:19:50;49641.00;;;-134.68
12409;BMP180;6268;48.188;17.134;2023-03-01T04:22:19;49642.94;;;-134.68
12409;BMP180;6268;48.188;17.134;2023-03-01T04:24:48;49639.06;;;-134.68
12409;BMP180;6268;48.188;17.134;2023-03-01T04:27:17;49642.94;;;-134.68
12409;BMP180;6268;48.188;17.134;2023-03-01T04:29:46;49644.88;;;-134.68
12409;BMP180;6268;48.188;17.134;2023-03-01T04:32:15;49642.94;;;-134.68
12409;BMP180;6268;48.188;17.134;2023-03-01T04:34:46;49641.00;;;-134.68
12409;BMP180;6268;48.188;17.134;2023-03-01T04:37:15;49642.94;;;-134.68
12409;BMP180;6268;48.188;17.134;2023-03-01T04:39:44;49642.94;;;-134.68
12409;BMP180;6268;48.188;17.134;2023-03-01T04:42:15;49642.94;;;-134.68
12409;BMP180;6268;48.188;17.134;2023-03-01T04:44:44;49641.00;;;-134.68
12409;BMP180;6268;48.188;17.134;2023-03-01T04:47:13;49642.94;;;-134.68
12409;BMP180;6268;48.188;17.134;2023-03-01T04:49:42;49642.94;;;-134.68
12409;BMP180;6268;48.188;17.134;2023-03-01T04:52:12;49642.94;;;-134.68
12409;BMP180;6268;48.188;17.134;2023-03-01T04:54:41;49642.94;;;-134.68
12409;BMP180;6268;48.188;17.134;2023-03-01T04:57:10;49642.94;;;-134.68
12409;BMP180;6268;48.188;17.134;2023-03-01T04:59:39;49642.94;;;-134.68
12409;BMP180;6268;48.188;17.134;2023-03-01T05:02:08;49644.88;;;-134.68
12409;BMP180;6268;48.188;17.134;2023-03-01T05:04:36;49641.00;;;-134.68
12409;BMP180;6268;48.188;17.134;2023-03-01T05:07:05;49642.94;;;-134.68
12409;BMP180;6268;48.188;17.134;2023-03-01T05:09:36;49642.94;;;-134.68
12409;BMP180;6268;48.188;17.134;2023-03-01T05:12:06;49642.94;;;-134.68
12409;BMP180;6268;48.188;17.134;2023-03-01T05:14:34;49641.00;;;-134.68
12409;BMP180;6268;48.188;17.134;2023-03-01T05:17:03;49641.00;;;-134.68
12409;BMP180;6268;48.188;17.134;2023-03-01T05:19:32;49642.94;;;-134.68
12409;BMP180;6268;48.188;17.134;2023-03-01T05:22:01;49642.94;;;-134.68
12409;BMP180;6268;48.188;17.134;2023-03-01T05:24:35;49639.06;;;-134.68
12409;BMP180;6268;48.188;17.134;2023-03-01T05:27:04;49642.94;;;-134.68
12409;BMP180;6268;48.188;17.134;2023-03-01T05:29:33;49642.94;;;-134.68
12409;BMP180;6268;48.188;17.134;2023-03-01T05:32:04;49642.94;;;-134.68
12409;BMP180;6268;48.188;17.134;2023-03-01T05:34:35;49644.88;;;-134.68
12409;BMP180;6268;48.188;17.134;2023-03-01T05:37:04;49642.94;;;-134.68
12409;BMP180;6268;48.188;17.134;2023-03-01T05:39:36;49642.94;;;-134.68
12409;BMP180;6268;48.188;17.134;2023-03-01T05:42:05;49641.00;;;-134.68
12409;BMP180;6268;48.188;17.134;2023-03-01T05:44:36;49639.06;;;-134.68
12409;BMP180;6268;48.188;17.134;2023-03-01T05:47:05;49642.94;;;-134.68
12409;BMP180;6268;48.188;17.134;2023-03-01T05:49:34;49642.94;;;-134.68
12409;BMP180;6268;48.188;17.134;2023-03-01T05:52:06;49642.94;;;-134.68
12409;BMP180;6268;48.188;17.134;2023-03-01T05:54:37;49639.06;;;-134.68
12409;BMP180;6268;48.188;17.134;2023-03-01T05:57:06;49639.06;;;-134.68
12409;BMP180;6268;48.188;17.134;2023-03-01T05:59:35;49642.94;;;-134.68
12409;BMP180;6268;48.188;17.134;2023-03-01T06:02:04;49641.00;;;-134.68
12409;BMP180;6268;48.188;17.134;2023-03-01T06:04:32;49641.00;;;-134.68
12409;BMP180;6268;48.188;17.134;2023-03-01T06:07:01;49639.06;;;-134.68
12409;BMP180;6268;48.188;17.134;2023-03-01T06:09:30;49642.94;;;-134.68
12409;BMP180;6268;48.188;17.134;2023-03-01T06:12:00;49642.94;;;-134.68
12409;BMP180;6268;48.188;17.134;2023-03-01T06:14:29;49642.94;;;-134.68
12409;BMP180;6268;48.188;17.134;2023-03-01T06:16:58;49642.94;;;-134.68
12409;BMP180;6268;48.188;17.134;2023-03-01T06:19:27;49644.88;;;-134.68
12409;BMP180;6268;48.188;17.134;2023-03-01T06:21:56;49642.94;;;-134.68
12409;BMP180;6268;48.188;17.134;2023-03-01T06:24:25;49644.88;;;-134.68
12409;BMP180;6268;48.188;17.134;2023-03-01T06:26:56;49642.94;;;-134.68
12409;BMP180;6268;48.188;17.134;2023-03-01T06:29:26;49642.94;;;-134.68
12409;BMP180;6268;48.188;17.134;2023-03-01T06:31:55;49642.94;;;-134.68
12409;BMP180;6268;48.188;17.134;2023-03-01T06:34:24;49642.94;;;-134.68
12409;BMP180;6268;48.188;17.134;2023-03-01T06:36:53;49644.88;;;-134.68
12409;BMP180;6268;48.188;17.134;2023-03-01T06:39:21;49642.94;;;-134.68
12409;BMP180;6268;48.188;17.134;2023-03-01T06:41:50;49641.00;;;-134.68
12409;BMP180;6268;48.188;17.134;2023-03-01T06:44:21;49639.06;;;-134.68
12409;BMP180;6268;48.188;17.134;2023-03-01T06:46:51;49646.84;;;-134.68
12409;BMP180;6268;48.188;17.134;2023-03-01T06:49:20;49639.06;;;-134.68
12409;BMP180;6268;48.188;17.134;2023-03-01T06:51:49;49641.00;;;-134.68
12409;BMP180;6268;48.188;17.134;2023-03-01T06:54:18;49642.94;;;-134.68
12409;BMP180;6268;48.188;17.134;2023-03-01T06:56:50;49642.94;;;-134.68
12409;BMP180;6268;48.188;17.134;2023-03-01T06:59:18;49642.94;;;-134.68
12409;BMP180;6268;48.188;17.134;2023-03-01T07:01:47;49641.00;;;-134.68
12409;BMP180;6268;48.188;17.134;2023-03-01T07:04:17;49641.00;;;-134.68
12409;BMP180;6268;48.188;17.134;2023-03-01T07:06:46;49642.94;;;-134.68
12409;BMP180;6268;48.188;17.134;2023-03-01T07:09:23;49642.94;;;-134.68
12409;BMP180;6268;48.188;17.134;2023-03-01T07:11:52;49644.88;;;-134.68
12409;BMP180;6268;48.188;17.134;2023-03-01T07:14:21;49642.94;;;-134.68
12409;BMP180;6268;48.188;17.134;2023-03-01T07:16:51;49642.94;;;-134.68
12409;BMP180;6268;48.188;17.134;2023-03-01T07:19:22;49642.94;;;-134.68
12409;BMP180;6268;48.188;17.134;2023-03-01T07:21:51;49641.00;;;-134.68
12409;BMP180;6268;48.188;17.134;2023-03-01T07:24:20;49642.94;;;-134.68
12409;BMP180;6268;48.188;17.134;2023-03-01T07:26:49;49642.94;;;-134.68
12409;BMP180;6268;48.188;17.134;2023-03-01T07:29:19;49642.94;;;-134.68
12409;BMP180;6268;48.188;17.134;2023-03-01T07:31:48;49642.94;;;-134.68
12409;BMP180;6268;48.188;17.134;2023-03-01T07:34:17;49644.88;;;-134.68
12409;BMP180;6268;48.188;17.134;2023-03-01T07:36:47;49641.00;;;-134.68
12409;BMP180;6268;48.188;17.134;2023-03-01T07:39:16;49642.94;;;-134.68
12409;BMP180;6268;48.188;17.134;2023-03-01T07:41:46;49642.94;;;-134.68
12409;BMP180;6268;48.188;17.134;2023-03-01T07:44:15;49644.88;;;-134.68
12409;BMP180;6268;48.188;17.134;2023-03-01T07:46:44;49642.94;;;-134.68
12409;BMP180;6268;48.188;17.134;2023-03-01T07:49:13;49642.94;;;-134.68
12409;BMP180;6268;48.188;17.134;2023-03-01T07:51:43;49644.88;;;-134.68
12409;BMP180;6268;48.188;17.134;2023-03-01T07:54:13;49641.00;;;-134.68
12409;BMP180;6268;48.188;17.134;2023-03-01T07:56:42;49642.94;;;-134.68
12409;BMP180;6268;48.188;17.134;2023-03-01T07:59:11;49644.88;;;-134.68
12409;BMP180;6268;48.188;17.134;2023-03-01T08:01:40;49642.94;;;-134.68
12409;BMP180;6268;48.188;17.134;2023-03-01T08:04:09;49644.88;;;-134.68
12409;BMP180;6268;48.188;17.134;2023-03-01T08:06:38;49644.88;;;-134.68
12409;BMP180;6268;48.188;17.134;2023-03-01T08:09:07;49646.84;;;-134.68
12409;BMP180;6268;48.188;17.134;2023-03-01T08:11:38;49644.88;;;-134.68
12409;BMP180;6268;48.188;17.134;2023-03-01T08:14:07;49642.94;;;-134.68
12409;BMP180;6268;48.188;17.134;2023-03-01T08:16:36;49644.88;;;-134.68
12409;BMP180;6268;48.188;17.134;2023-03-01T08:19:06;49644.88;;;-134.68
12409;BMP180;6268;48.188;17.134;2023-03-01T08:21:35;49646.84;;;-134.68
12409;BMP180;6268;48.188;17.134;2023-03-01T08:24:06;49644.88;;;-134.68
12409;BMP180;6268;48.188;17.134;2023-03-01T08:26:39;49642.94;;;-134.68
12409;BMP180;6268;48.188;17.134;2023-03-01T08:29:08;49642.94;;;-134.68
12409;BMP180;6268;48.188;17.134;2023-03-01T08:31:39;49644.88;;;-134.68
12409;BMP180;6268;48.188;17.134;2023-03-01T08:34:12;49646.84;;;-134.68
12409;BMP180;6268;48.188;17.134;2023-03-01T08:36:43;49644.88;;;-134.68
12409;BMP180;6268;48.188;17.134;2023-03-01T08:39:15;49642.94;;;-134.68
12409;BMP180;6268;48.188;17.134;2023-03-01T08:41:47;49644.88;;;-134.68
12409;BMP180;6268;48.188;17.134;2023-03-01T08:44:16;49644.88;;;-134.68
12409;BMP180;6268;48.188;17.134;2023-03-01T08:46:45;49646.84;;;-134.68
12409;BMP180;6268;48.188;17.134;2023-03-01T08:49:18;49646.84;;;-134.68
12409;BMP180;6268;48.188;17.134;2023-03-01T08:51:47;49646.84;;;-134.68
12409;BMP180;6268;48.188;17.134;2023-03-01T08:54:19;49650.72;;;-134.68
12409;BMP180;6268;48.188;17.134;2023-03-01T08:56:50;49644.88;;;-134.68
12409;BMP180;6268;48.188;17.134;2023-03-01T08:59:19;49644.88;;;-134.68
12409;BMP180;6268;48.188;17.134;2023-03-01T09:01:48;49646.84;;;-134.68
12409;BMP180;6268;48.188;17.134;2023-03-01T09:04:17;49648.78;;;-134.68
12409;BMP180;6268;48.188;17.134;2023-03-01T09:06:46;49646.84;;;-134.68
12409;BMP180;6268;48.188;17.134;2023-03-01T09:09:17;49648.78;;;-134.68
12409;BMP180;6268;48.188;17.134;2023-03-01T09:11:46;49648.78;;;-134.68
12409;BMP180;6268;48.188;17.134;2023-03-01T09:14:18;49646.84;;;-134.68
12409;BMP180;6268;48.188;17.134;2023-03-01T09:16:47;49646.84;;;-134.68
12409;BMP180;6268;48.188;17.134;2023-03-01T09:19:17;49648.78;;;-134.68
12409;BMP180;6268;48.188;17.134;2023-03-01T09:21:46;49650.72;;;-134.68
12409;BMP180;6268;48.188;17.134;2023-03-01T09:24:22;49650.72;;;-134.68
12409;BMP180;6268;48.188;17.134;2023-03-01T09:26:54;49646.84;;;-134.68
12409;BMP180;6268;48.188;17.134;2023-03-01T09:29:24;49650.72;;;-134.68
12409;BMP180;6268;48.188;17.134;2023-03-01T09:31:53;49646.84;;;-134.68
12409;BMP180;6268;48.188;17.134;2023-03-01T09:34:23;49652.66;;;-134.68
12409;BMP180;6268;48.188;17.134;2023-03-01T09:36:52;49646.84;;;-134.68
12409;BMP180;6268;48.188;17.134;2023-03-01T09:39:21;49648.78;;;-134.68
12409;BMP180;6268;48.188;17.134;2023-03-01T09:41:58;49648.78;;;-134.68
12409;BMP180;6268;48.188;17.134;2023-03-01T09:44:38;49648.78;;;-134.68
12409;BMP180;6268;48.188;17.134;2023-03-01T09:47:19;49646.84;;;-134.68
12409;BMP180;6268;48.188;17.134;2023-03-01T09:50:02;49644.88;;;-134.68
12409;BMP180;6268;48.188;17.134;2023-03-01T09:52:40;49648.78;;;-134.68
12409;BMP180;6268;48.188;17.134;2023-03-01T09:55:14;49650.72;;;-134.68
12409;BMP180;6268;48.188;17.134;2023-03-01T09:57:52;49648.78;;;-134.68
12409;BMP180;6268;48.188;17.134;2023-03-01T10:00:37;49648.78;;;-134.68
12409;BMP180;6268;48.188;17.134;2023-03-01T10:03:17;49646.84;;;-134.68
12409;BMP180;6268;48.188;17.134;2023-03-01T10:06:04;49648.78;;;-134.68
12409;BMP180;6268;48.188;17.134;2023-03-01T10:08:47;49648.78;;;-134.68
12409;BMP180;6268;48.188;17.134;2023-03-01T10:11:27;49652.66;;;-134.68
12409;BMP180;6268;48.188;17.134;2023-03-01T10:14:03;49646.84;;;-134.68
12409;BMP180;6268;48.188;17.134;2023-03-01T10:16:46;49648.78;;;-134.68
12409;BMP180;6268;48.188;17.134;2023-03-01T10:19:30;49650.72;;;-134.68
12409;BMP180;6268;48.188;17.134;2023-03-01T10:22:13;49648.78;;;-134.68
12409;BMP180;6268;48.188;17.134;2023-03-01T10:24:44;49648.78;;;-134.68
12409;BMP180;6268;48.188;17.134;2023-03-01T10:27:20;49646.84;;;-134.68
12409;BMP180;6268;48.188;17.134;2023-03-01T10:30:01;49646.84;;;-134.68
12409;BMP180;6268;48.188;17.134;2023-03-01T10:32:35;49648.78;;;-134.68
12409;BMP180;6268;48.188;17.134;2023-03-01T10:35:18;49648.78;;;-134.68
12409;BMP180;6268;48.188;17.134;2023-03-01T10:38:02;49648.78;;;-134.68
12409;BMP180;6268;48.188;17.134;2023-03-01T10:40:33;49648.78;;;-134.68
12409;BMP180;6268;48.188;17.134;2023-03-01T10:43:05;49648.78;;;-134.68
12409;BMP180;6268;48.188;17.134;2023-03-01T10:45:38;49648.78;;;-134.68
12409;BMP180;6268;48.188;17.134;2023-03-01T10:48:15;49650.72;;;-134.68
12409;BMP180;6268;48.188;17.134;2023-03-01T10:50:48;49648.78;;;-134.68
12409;BMP180;6268;48.188;17.134;2023-03-01T10:53:28;49650.72;;;-134.68
12409;BMP180;6268;48.188;17.134;2023-03-01T10:56:02;49646.84;;;-134.68
12409;BMP180;6268;48.188;17.134;2023-03-01T10:58:33;49646.84;;;-134.68
12409;BMP180;6268;48.188;17.134;2023-03-01T11:01:05;49646.84;;;-134.68
12409;BMP180;6268;48.188;17.134;2023-03-01T11:03:38;49648.78;;;-134.68
12409;BMP180;6268;48.188;17.134;2023-03-01T11:06:21;49650.72;;;-134.68
12409;BMP180;6268;48.188;17.134;2023-03-01T11:08:50;49650.72;;;-134.68
12409;BMP180;6268;48.188;17.134;2023-03-01T11:11:33;49650.72;;;-134.68
12409;BMP180;6268;48.188;17.134;2023-03-01T11:14:14;49648.78;;;-134.68
12409;BMP180;6268;48.188;17.134;2023-03-01T11:17:02;49650.72;;;-134.68
12409;BMP180;6268;48.188;17.134;2023-03-01T11:19:33;49646.84;;;-134.68
12409;BMP180;6268;48.188;17.134;2023-03-01T11:22:10;49648.78;;;-134.68
12409;BMP180;6268;48.188;17.134;2023-03-01T11:24:44;49646.84;;;-134.68
12409;BMP180;6268;48.188;17.134;2023-03-01T11:27:32;49646.84;;;-134.68
12409;BMP180;6268;48.188;17.134;2023-03-01T11:30:28;49646.84;;;-134.68
12409;BMP180;6268;48.188;17.134;2023-03-01T11:33:28;49646.84;;;-134.68
12409;BMP180;6268;48.188;17.134;2023-03-01T11:36:07;49644.88;;;-134.68
12409;BMP180;6268;48.188;17.134;2023-03-01T11:38:38;49650.72;;;-134.68
12409;BMP180;6268;48.188;17.134;2023-03-01T11:41:14;49646.84;;;-134.68
12409;BMP180;6268;48.188;17.134;2023-03-01T11:43:51;49646.84;;;-134.68
12409;BMP180;6268;48.188;17.134;2023-03-01T11:50:00;49650.72;;;-134.68
12409;BMP180;6268;48.188;17.134;2023-03-01T11:52:46;49648.78;;;-134.68
12409;BMP180;6268;48.188;17.134;2023-03-01T11:55:30;49642.94;;;-134.68
12409;BMP180;6268;48.188;17.134;2023-03-01T11:58:38;49648.78;;;-134.68
12409;BMP180;6268;48.188;17.134;2023-03-01T12:01:26;49646.84;;;-134.68
12409;BMP180;6268;48.188;17.134;2023-03-01T12:04:34;49646.84;;;-134.68
12409;BMP180;6268;48.188;17.134;2023-03-01T12:07:13;49648.78;;;-134.68
12409;BMP180;6268;48.188;17.134;2023-03-01T12:10:04;49648.78;;;-134.68
12409;BMP180;6268;48.188;17.134;2023-03-01T12:16:14;49648.78;;;-134.68
12409;BMP180;6268;48.188;17.134;2023-03-01T12:19:16;49644.88;;;-134.68
12409;BMP180;6268;48.188;17.134;2023-03-01T12:22:04;49644.88;;;-134.68
12409;BMP180;6268;48.188;17.134;2023-03-01T12:28:21;49644.88;;;-134.68
12409;BMP180;6268;48.188;17.134;2023-03-01T12:34:48;49648.78;;;-134.68
12409;BMP180;6268;48.188;17.134;2023-03-01T12:37:31;49646.84;;;-134.68
12409;BMP180;6268;48.188;17.134;2023-03-01T12:40:28;49650.72;;;-134.68
12409;BMP180;6268;48.188;17.134;2023-03-01T12:43:15;49646.84;;;-134.68
12409;BMP180;6268;48.188;17.134;2023-03-01T12:46:03;49646.84;;;-134.68
12409;BMP180;6268;48.188;17.134;2023-03-01T12:48:46;49646.84;;;-134.68
12409;BMP180;6268;48.188;17.134;2023-03-01T12:51:23;49646.84;;;-134.68
12409;BMP180;6268;48.188;17.134;2023-03-01T12:53:55;49646.84;;;-134.68
12409;BMP180;6268;48.188;17.134;2023-03-01T12:56:32;49646.84;;;-134.68
12409;BMP180;6268;48.188;17.134;2023-03-01T12:59:12;49644.88;;;-134.68
12409;BMP180;6268;48.188;17.134;2023-03-01T13:01:49;49646.84;;;-134.68
12409;BMP180;6268;48.188;17.134;2023-03-01T13:04:31;49646.84;;;-134.68
12409;BMP180;6268;48.188;17.134;2023-03-01T13:07:23;49642.94;;;-134.68
12409;BMP180;6268;48.188;17.134;2023-03-01T13:10:10;49644.88;;;-134.68
12409;BMP180;6268;48.188;17.134;2023-03-01T13:13:13;49646.84;;;-134.68
12409;BMP180;6268;48.188;17.134;2023-03-01T13:15:42;49646.84;;;-134.68
12409;BMP180;6268;48.188;17.134;2023-03-01T13:18:32;49646.84;;;-134.68
12409;BMP180;6268;48.188;17.134;2023-03-01T13:21:03;49650.72;;;-134.68
12409;BMP180;6268;48.188;17.134;2023-03-01T13:23:38;49646.84;;;-134.68
12409;BMP180;6268;48.188;17.134;2023-03-01T13:26:12;49646.84;;;-134.68
12409;BMP180;6268;48.188;17.134;2023-03-01T13:29:01;49646.84;;;-134.68
12409;BMP180;6268;48.188;17.134;2023-03-01T13:32:00;49646.84;;;-134.68
12409;BMP180;6268;48.188;17.134;2023-03-01T13:35:15;49646.84;;;-134.68
12409;BMP180;6268;48.188;17.134;2023-03-01T13:38:38;49646.84;;;-134.68
12409;BMP180;6268;48.188;17.134;2023-03-01T13:41:08;49646.84;;;-134.68
12409;BMP180;6268;48.188;17.134;2023-03-01T13:43:40;49644.88;;;-134.68
12409;BMP180;6268;48.188;17.134;2023-03-01T13:46:16;49646.84;;;-134.68
12409;BMP180;6268;48.188;17.134;2023-03-01T13:48:52;49644.88;;;-134.68
12409;BMP180;6268;48.188;17.134;2023-03-01T13:51:26;49644.88;;;-134.68
12409;BMP180;6268;48.188;17.134;2023-03-01T13:53:58;49646.84;;;-134.68
12409;BMP180;6268;48.188;17.134;2023-03-01T13:56:35;49646.84;;;-134.68
12409;BMP180;6268;48.188;17.134;2023-03-01T13:59:13;49644.88;;;-134.68
12409;BMP180;6268;48.188;17.134;2023-03-01T14:01:43;49644.88;;;-134.68
12409;BMP180;6268;48.188;17.134;2023-03-01T14:04:24;49644.88;;;-134.68
12409;BMP180;6268;48.188;17.134;2023-03-01T14:07:10;49646.84;;;-134.68
12409;BMP180;6268;48.188;17.134;2023-03-01T14:09:43;49646.84;;;-134.68
12409;BMP180;6268;48.188;17.134;2023-03-01T14:12:29;49644.88;;;-134.68
12409;BMP180;6268;48.188;17.134;2023-03-01T14:15:06;49644.88;;;-134.68
12409;BMP180;6268;48.188;17.134;2023-03-01T14:17:54;49644.88;;;-134.68
12409;BMP180;6268;48.188;17.134;2023-03-01T14:20:27;49644.88;;;-134.68
12409;BMP180;6268;48.188;17.134;2023-03-01T14:23:02;49641.00;;;-134.68
12409;BMP180;6268;48.188;17.134;2023-03-01T14:25:46;49646.84;;;-134.68
12409;BMP180;6268;48.188;17.134;2023-03-01T14:28:19;49646.84;;;-134.68
12409;BMP180;6268;48.188;17.134;2023-03-01T14:30:51;49644.88;;;-134.68
12409;BMP180;6268;48.188;17.134;2023-03-01T14:33:24;49646.84;;;-134.68
12409;BMP180;6268;48.188;17.134;2023-03-01T14:35:57;49644.88;;;-134.68